Latest Weather Observations for Gannett Cay

IDQ60801

Issued at 10:02 pm EST Tuesday 27 September 2016 (issued every 30 minutes, with the page automatically refreshed every 10 minutes)

About weather observations | Map of weather stations | Latest weather observations for QLD | Other Formats
Station Details ID: 200831 Name: GANNET CAY Lat: -21.98 Lon: 152.47 Height: 2.3 m
Data from the previous 72 hours. | See also: Recent months for locations in Queensland
Date/Time
EST
Temp
°C
App
Temp
°C
Dew
Point
°C
Rel
Hum
%
Delta-T
°C
Wind Press
QNH
hPa
Press
MSL
hPa
Rain since
9am
mm
Dir  Spd
km/h
Gust
km/h
Spd
kts
Gust
kts
27/10:00pm 22.5 - - - - CALM 0 7 0 4 1013.9 - -
27/09:30pm 22.6 - - - - CALM 0 2 0 1 1014.0 - -
27/09:29pm 22.6 - - - - CALM 0 0 0 0 1014.0 1014.1 -
27/09:00pm 22.8 - - - - CALM 0 2 0 1 1013.8 - -
27/08:30pm 22.8 - - - - CALM 0 6 0 3 1013.8 - -
27/08:29pm 22.8 - - - - CALM 0 - 0 - - 1013.9 -
27/08:00pm 22.9 - - - - CALM 0 6 0 3 1013.9 - -
27/07:30pm 22.8 - - - - CALM 0 6 0 3 1013.5 - -
27/07:29pm 22.8 - - - - CALM 0 - 0 - - 1013.6 -
27/07:00pm 22.7 - - - - E 4 15 2 8 1013.0 - -
27/06:30pm 22.7 - - - - ESE 17 20 9 11 1013.0 - -
27/06:29pm 22.7 - - - - ESE 19 - 10 - - 1013.1 -
27/06:00pm 22.7 - - - - SE 22 26 12 14 1012.9 - -
27/05:30pm 22.8 - - - - SSE 24 28 13 15 1013.1 - -
27/05:29pm 22.7 - - - - SSE 24 - 13 - - 1013.2 -
27/05:00pm 22.8 - - - - SSE 26 32 14 17 1012.9 - -
27/04:30pm 22.7 - - - - SSE 30 33 16 18 1012.6 - -
27/04:29pm 22.8 - - - - SSE 30 - 16 - - 1012.7 -
27/04:00pm 22.9 - - - - SSE 30 33 16 18 1012.2 - -
27/03:30pm 23.1 - - - - SSE 26 32 14 17 1011.9 - -
27/03:29pm 23.2 - - - - SSE 24 - 13 - - 1012.0 -
27/03:00pm 23.0 - - - - S 26 32 14 17 1011.8 - -
27/02:30pm 23.1 - - - - SSE 20 26 11 14 1011.6 - -
27/02:29pm 23.0 - - - - SSE 20 - 11 - - 1011.7 -
27/02:00pm 23.0 - - - - S 26 30 14 16 1012.3 - -
27/01:30pm 23.1 - - - - S 24 30 13 16 1012.6 - -
27/01:29pm 23.2 - - - - S 24 - 13 - - 1012.7 -
27/01:00pm 23.2 - - - - SSW 26 32 14 17 1012.9 - -
27/12:30pm 23.2 - - - - SSW 24 30 13 16 1013.3 - -
27/12:29pm 23.4 - - - - SSW 24 - 13 - - 1013.4 -
27/12:00pm 23.2 - - - - SSW 26 28 14 15 1013.7 - -
27/11:30am 23.0 - - - - SW 24 28 13 15 1014.1 - -
27/11:29am 23.3 - - - - SW 24 - 13 - - 1014.2 -
27/11:00am 23.1 - - - - SSW 22 26 12 14 1014.7 - -
27/10:30am 23.2 - - - - SSW 24 28 13 15 1015.0 - -
27/10:29am 23.2 - - - - SSW 24 - 13 - - 1015.1 -
27/10:00am 23.1 - - - - SW 19 20 10 11 1015.0 - -
27/09:30am 23.0 - - - - SW 20 22 11 12 1015.2 - -
27/09:29am 23.1 - - - - SW 20 - 11 - - 1015.3 -
27/09:00am 23.1 - - - - SW 17 20 9 11 1015.1 - -
27/08:30am 23.2 - - - - SW 19 20 10 11 1015.1 - -
27/08:29am 23.2 - - - - SW 17 - 9 - - 1015.1 -
27/08:00am 23.2 - - - - SW 17 20 9 11 1014.8 - -
27/07:30am 23.4 - - - - SW 19 22 10 12 1014.8 - -
27/07:29am 23.5 - - - - SW 19 - 10 - - 1014.9 -
27/07:00am 23.6 - - - - CALM 0 4 0 2 1014.5 - -
27/06:30am 23.5 - - - - CALM 0 4 0 2 1013.6 - -
27/06:29am 23.4 - - - - CALM 0 - 0 - - 1013.7 -
27/06:00am 23.4 - - - - CALM 0 4 0 2 1013.2 - -
27/05:30am 23.3 - - - - CALM 0 4 0 2 1012.9 - -
27/05:29am 23.3 - - - - CALM 0 - 0 - - 1012.9 -
27/05:00am 23.2 - - - - CALM 0 6 0 3 1012.4 - -
27/04:30am 23.2 - - - - CALM 0 6 0 3 1012.1 - -
27/04:29am 23.1 - - - - CALM 0 - 0 - - 1012.1 -
27/04:00am 23.1 - - - - N 9 11 5 6 1011.6 - -
27/03:30am 23.0 - - - - NNE 11 13 6 7 1011.5 - -
27/03:29am 23.1 - - - - NNE 11 - 6 - - 1011.6 -
27/03:00am 23.1 - - - - NE 15 17 8 9 1011.3 - -
27/02:30am 23.1 - - - - NNE 13 15 7 8 1011.7 - -
27/02:29am 23.1 - - - - NNE 13 - 7 - - 1011.8 -
27/02:00am 23.1 - - - - N 11 15 6 8 1011.8 - -
27/01:30am 23.0 - - - - N 6 17 3 9 1012.0 - -
27/01:29am 23.0 - - - - N 6 - 3 - - 1012.1 -
27/01:00am 23.1 - - - - CALM 0 6 0 3 1012.6 - -
27/12:30am 23.0 - - - - CALM 0 4 0 2 1012.8 - -
27/12:29am 23.1 - - - - CALM 0 - 0 - - 1012.9 -
27/12:00am 23.0 - - - - CALM 0 4 0 2 1012.9 - -
 
Date/Time
EST
Temp
°C
App
Temp
°C
Dew
Point
°C
Rel
Hum
%
Delta-T
°C
Wind Press
QNH
hPa
Press
MSL
hPa
Rain since
9am
mm
Dir  Spd
km/h
Gust
km/h
Spd
kts
Gust
kts
26/11:30pm 23.0 - - - - NNE 2 6 1 3 1012.9 - -
26/11:29pm 22.9 - - - - NNE 2 - 1 - - 1013.0 -
26/11:00pm 22.9 - - - - NNE 2 6 1 3 1013.2 - -
26/10:30pm 23.0 - - - - CALM 0 4 0 2 1013.2 - -
26/10:29pm 22.9 - - - - CALM 0 - 0 - - 1013.3 -
26/10:00pm 22.9 - - - - CALM 0 4 0 2 1013.5 - -
26/09:30pm 22.8 - - - - CALM 0 7 0 4 1013.4 - -
26/09:29pm 22.8 - - - - CALM 0 - 0 - - 1013.5 -
26/09:00pm 22.9 - - - - CALM 0 4 0 2 1013.2 - -
26/08:30pm 22.7 - - - - CALM 0 6 0 3 1013.2 - -
26/08:29pm 22.8 - - - - CALM 0 - 0 - - 1013.3 -
26/08:00pm 22.6 - - - - CALM 0 4 0 2 1013.2 - -
26/07:30pm 22.6 - - - - ESE 15 17 8 9 1012.9 - -
26/07:29pm 22.5 - - - - ESE 15 - 8 - - 1013.0 -
26/07:00pm 22.6 - - - - SE 17 20 9 11 1012.7 - -
26/06:30pm 22.6 - - - - SE 17 20 9 11 1012.4 - -
26/06:29pm 22.6 - - - - SE 17 - 9 - - 1012.5 -
26/06:00pm 22.6 - - - - SE 20 24 11 13 1012.0 - -
26/05:30pm 22.9 - - - - SE 22 26 12 14 1011.4 - -
26/05:29pm 23.0 - - - - SE 22 - 12 - - 1011.5 -
26/05:00pm 23.1 - - - - SE 26 30 14 16 1011.1 - -
26/04:30pm 23.4 - - - - SSE 26 30 14 16 1010.9 - -
26/04:29pm 23.4 - - - - SSE 26 - 14 - - 1011.0 -
26/04:00pm 23.5 - - - - SE 26 30 14 16 1010.8 - -
26/03:30pm 23.6 - - - - SE 28 32 15 17 1010.6 - -
26/03:29pm 23.6 - - - - SE 28 - 15 - - 1010.7 -
26/03:00pm 23.8 - - - - SE 26 30 14 16 1010.8 - -
26/02:30pm 24.0 - - - - SE 26 30 14 16 1010.9 - -
26/02:29pm 24.0 - - - - SE 26 - 14 - - 1011.0 -
26/02:00pm 24.1 - - - - SE 28 32 15 17 1011.0 - -
26/01:30pm 24.0 - - - - SE 30 35 16 19 1011.1 - -
26/01:29pm 24.0 - - - - SE 32 - 17 - - 1011.2 -
26/01:00pm 24.1 - - - - SE 30 33 16 18 1011.4 - -
26/12:30pm 24.1 - - - - SSE 33 39 18 21 1011.5 - -
26/12:29pm 24.2 - - - - SSE 33 - 18 - - 1011.6 -
26/12:00pm 24.3 - - - - SSE 33 37 18 20 1011.9 - -
26/11:30am 24.4 - - - - SE 33 37 18 20 1012.4 - -
26/11:29am 24.3 - - - - SE 32 - 17 - - 1012.5 -
26/11:00am 24.2 - - - - SE 32 37 17 20 1012.5 - -
26/10:30am 24.2 - - - - SE 32 37 17 20 1012.6 - -
26/10:29am 24.3 - - - - SE 32 - 17 - - 1012.7 -
26/10:00am 24.3 - - - - SE 32 37 17 20 1012.9 - -
26/09:30am 24.2 - - - - SE 33 39 18 21 1013.0 - -
26/09:29am 24.3 - - - - SE 33 - 18 - - 1013.1 -
26/09:00am 24.4 - - - - SE 33 37 18 20 1013.1 - -
26/08:30am 24.3 - - - - SE 33 39 18 21 1013.1 - -
26/08:29am 24.4 - - - - SE 35 - 19 - - 1013.2 -
26/08:00am 23.8 - - - - SSE 33 37 18 20 1012.7 - -
26/07:30am 23.7 - - - - S 32 39 17 21 1012.5 - -
26/07:29am 23.7 - - - - S 32 - 17 - - 1012.6 -
26/07:00am 24.1 - - - - SW 26 30 14 16 1012.1 - -
26/06:30am 24.2 - - - - W 20 24 11 13 1011.7 - -
26/06:29am 24.2 - - - - W 20 - 11 - - 1011.8 -
26/06:00am 24.2 - - - - W 24 28 13 15 1011.4 - -
26/05:30am 24.1 - - - - W 24 30 13 16 1011.1 - -
26/05:29am 24.1 - - - - W 24 - 13 - - 1011.1 -
26/05:00am 24.1 - - - - W 26 30 14 16 1010.6 - -
26/04:30am 24.2 - - - - W 28 32 15 17 1010.4 - -
26/04:29am 24.2 - - - - W 28 - 15 - - 1010.4 -
26/04:00am 24.1 - - - - W 32 35 17 19 1009.9 - -
26/03:30am 24.1 - - - - WNW 32 39 17 21 1009.5 - -
26/03:29am 24.1 - - - - WNW 32 - 17 - - 1009.6 -
26/03:00am 24.0 - - - - WNW 32 35 17 19 1009.3 - -
26/02:30am 24.1 - - - - WNW 33 37 18 20 1009.5 - -
26/02:29am 24.1 - - - - WNW 32 - 17 - - 1009.6 -
26/02:00am 24.1 - - - - WNW 32 37 17 20 1009.8 - -
26/01:30am 24.2 - - - - WNW 33 37 18 20 1009.9 - -
26/01:29am 24.3 - - - - WNW 33 - 18 - - 1010.1 -
26/01:00am 24.3 - - - - WNW 33 39 18 21 1010.2 - -
26/12:30am 24.3 - - - - WNW 33 37 18 20 1010.4 - -
26/12:29am 24.3 - - - - WNW 33 - 18 - - 1010.4 -
26/12:00am 24.4 - - - - WNW 33 37 18 20 1010.6 - -
 
Date/Time
EST
Temp
°C
App
Temp
°C
Dew
Point
°C
Rel
Hum
%
Delta-T
°C
Wind Press
QNH
hPa
Press
MSL
hPa
Rain since
9am
mm
Dir  Spd
km/h
Gust
km/h
Spd
kts
Gust
kts
25/11:30pm 24.4 - - - - NW 32 37 17 20 1010.7 - -
25/11:29pm 24.4 - - - - NW 33 - 18 - - 1010.8 -
25/11:00pm 24.5 - - - - NW 33 37 18 20 1010.7 - -
25/10:30pm 24.5 - - - - NW 33 39 18 21 1010.8 - -
25/10:29pm 24.5 - - - - NW 32 - 17 - - 1010.9 -
25/10:00pm 24.6 - - - - NW 33 35 18 19 1010.6 - -
25/09:30pm 24.6 - - - - NW 33 37 18 20 1010.5 - -
25/09:29pm 24.6 - - - - NW 33 - 18 - - 1010.6 -
25/09:00pm 24.6 - - - - NW 32 35 17 19 1010.6 - -
25/08:30pm 24.5 - - - - NW 28 32 15 17 1010.5 - -
25/08:29pm 24.5 - - - - NW 28 - 15 - - 1010.6 -
25/08:00pm 24.5 - - - - NW 32 35 17 19 1010.3 - -
25/07:30pm 24.6 - - - - NNW 33 39 18 21 1009.9 - -
25/07:29pm 24.5 - - - - NNW 33 - 18 - - 1010.0 -
25/07:00pm 24.5 - - - - NNW 32 35 17 19 1009.6 - -
25/06:30pm 24.5 - - - - NW 33 39 18 21 1009.3 - -
25/06:29pm 24.5 - - - - NW 33 - 18 - - 1009.4 -
25/06:00pm 24.5 - - - - NW 35 41 19 22 1008.9 - -
25/05:30pm 24.6 - - - - NW 33 39 18 21 1008.6 - -
25/05:29pm 24.6 - - - - NW 33 - 18 - - 1008.7 -
25/05:00pm 24.5 - - - - NW 35 41 19 22 1008.3 - -
25/04:30pm 24.7 - - - - NW 35 41 19 22 1008.4 - -
25/04:29pm 24.7 - - - - NW 35 - 19 - - 1008.6 -
25/04:00pm 24.8 - - - - NW 35 39 19 21 1008.5 - -
25/03:30pm 24.7 - - - - NNW 35 39 19 21 1008.1 - -
25/03:29pm 24.6 - - - - NNW 35 - 19 - - 1008.3 -
25/03:00pm 24.7 - - - - NW 35 39 19 21 1008.2 - -
25/02:30pm 24.8 - - - - NW 35 43 19 23 1008.4 - -
25/02:29pm 24.8 - - - - NW 35 - 19 - - 1008.6 -
25/02:00pm 24.7 - - - - NW 35 41 19 22 1008.4 - -
25/01:30pm 24.8 - - - - NNW 35 41 19 22 1008.6 - -
25/01:29pm 24.7 - - - - NNW 35 - 19 - - 1008.8 -
25/01:00pm 24.8 - - - - NNW 35 41 19 22 1009.1 - -
25/12:30pm 24.9 - - - - NNW 33 41 18 22 1009.3 - -
25/12:29pm 24.8 - - - - NNW 33 - 18 - - 1009.4 -
25/12:00pm 24.8 - - - - NNW 37 41 20 22 1009.6 - -
25/11:30am 24.7 - - - - NNW 37 41 20 22 1010.0 - -
25/11:29am 24.8 - - - - NNW 37 - 20 - - 1010.1 -
25/11:00am 24.7 - - - - NNW 33 39 18 21 1010.4 - -
25/10:30am 24.7 - - - - NNW 33 39 18 21 1010.9 - -
25/10:29am 24.7 - - - - NNW 33 - 18 - - 1011.0 -
25/10:00am 24.7 - - - - NNW 33 39 18 21 1011.1 - -
25/09:30am 24.6 - - - - NNW 33 41 18 22 1011.3 - -
25/09:29am 24.6 - - - - NNW 33 - 18 - - 1011.3 -
25/09:00am 24.5 - - - - NNW 32 37 17 20 1011.3 - -
25/08:30am 24.7 - - - - NNW 35 41 19 22 1011.4 - -
25/08:29am 24.6 - - - - NNW 35 - 19 - - 1011.5 -
25/08:00am 24.5 - - - - NNW 30 33 16 18 1011.4 - -
25/07:30am 24.5 - - - - NNW 32 39 17 21 1011.3 - -
25/07:29am 24.6 - - - - NNW 32 - 17 - - 1011.4 -
25/07:00am 24.4 - - - - NNW 30 33 16 18 1011.2 - -
25/06:30am 24.4 - - - - NNW 30 33 16 18 1010.9 - -
25/06:29am 24.3 - - - - NNW 30 - 16 - - 1011.0 -
25/06:00am 24.2 - - - - NNW 30 33 16 18 1010.8 - -
25/05:30am 24.3 - - - - NW 30 33 16 18 1010.5 - -
25/05:29am 24.3 - - - - NW 30 - 16 - - 1010.6 -
25/05:00am 24.3 - - - - NW 30 33 16 18 1010.1 - -
25/04:30am 24.2 - - - - NNW 30 33 16 18 1009.7 - -
25/04:29am 24.3 - - - - NNW 32 - 17 - - 1009.8 -
25/04:00am 24.3 - - - - NNW 28 32 15 17 1009.5 - -
25/03:30am 24.2 - - - - NNW 28 32 15 17 1009.0 - -
25/03:29am 24.3 - - - - NNW 28 - 15 - - 1009.2 -
25/03:00am 24.3 - - - - NNW 28 32 15 17 1009.1 - -
25/02:30am 24.3 - - - - NNW 26 30 14 16 1009.5 - -
25/02:29am 24.2 - - - - NNW 26 - 14 - - 1009.6 -
25/02:00am 24.2 - - - - NNW 26 30 14 16 1009.6 - -
25/01:30am 24.4 - - - - NNW 28 32 15 17 1009.7 - -
25/01:29am 24.2 - - - - NNW 26 - 14 - - 1009.8 -
25/01:00am 24.3 - - - - NNW 26 30 14 16 1010.1 - -
25/12:30am 24.4 - - - - NNW 28 30 15 16 1010.3 - -
25/12:29am 24.3 - - - - NNW 28 - 15 - - 1010.4 -
25/12:00am 24.3 - - - - NNW 28 32 15 17 1010.5 - -
 
Date/Time
EST
Temp
°C
App
Temp
°C
Dew
Point
°C
Rel
Hum
%
Delta-T
°C
Wind Press
QNH
hPa
Press
MSL
hPa
Rain since
9am
mm
Dir  Spd
km/h
Gust
km/h
Spd
kts
Gust
kts
24/11:30pm 24.2 - - - - NNW 26 30 14 16 1010.6 - -
24/11:29pm 24.3 - - - - NNW 26 - 14 - - 1010.7 -
24/11:00pm 24.4 - - - - N 24 30 13 16 1010.6 - -
24/10:30pm 24.2 - - - - N 24 30 13 16 1010.7 - -
24/10:29pm 24.2 - - - - N 24 - 13 - - 1010.8 -

Other Formats:

Comma delimited format used in spreadsheet applications
http://www.bom.gov.au/fwo/IDQ60801/IDQ60801.94379.axf

JavaScript Object Notation format (JSON) in row-major order
http://www.bom.gov.au/fwo/IDQ60801/IDQ60801.94379.json